Accueil
METAR-TAF:

METAR-TAF

Aéroports :

Aéroport de Saint-Louis

Saint-Louis, Sénégal

latitude: 16-03N, longitude: 016-27W, altitude: 4 m

Observation

Le bulletin a été fait il y a 43 minutes, à 18:00 UTC
Vent 8 kt de nord-ouest, variant entre ouest et nord
Température 27°C
Humidité 42%
Pression 1010 hPa
Visibilité 10 km ou plus
pas de nuages en-dessous de 1500 mètres et pas de cumulonimbus.

METAR: GOSS 291800Z 32008KT 270V350 CAVOK 27/13 Q1010

Heure: 18:43 (18:43 UTC)

Prévision

Le bulletin a été fait il y a 1 heure et 13 minutes, à 17:30 UTC
Prévision valable du 29 à 18 UTC au 30 à 18 UTC
Vent 10 kt de nord
Visibilité 10 km ou plus
pas de nuages en-dessous de 1500 mètres et pas de cumulonimbus.

TAF: GOSS 291730Z 2918/3018 36010KT CAVOK

Observations et prévisions météorologiques de plus de 4000 aéroports (messages METAR et TAF).

Les stations disponibles sont représentées par des disques jaunes et rouges sur la carte.

Passer la souris dessus pour voir le nom de la station.

Cliquer dessus pour voir les observations et prévisions météorologiques.

Pour changer de carte: cliquez sur les boutons verts avec une croix noire pour zoomer, sur le bouton vert avec un tiret pour effectuer un zoom arrière, ou sur les flèches vertes pour les cartes adjacentes.


METAR-TAF: